Pagrindinis puslapis
METAR-TAF:

METAR-TAF

Oro uostai :

Landžou, Kinija

platuma: 36-02N, ilguma: 103-52E, Aukštis: 1518 m

Dabartinis oras

Ataskaita buvo paskelbta 33 minutes, ne 16:00 UTC
Vėjas 4 kt iš Rytų/Šiaurės Rytų
Temperatūra 17°C
Drėgmė 36%
Slėgis 1011 hPa
Matomumas 10 km arba daugiau
nėra debesų žemiau 1500 m ir nėra kamuolinių lietaus debesų

METAR: ZLLL 051600Z 07002MPS CAVOK 17/02 Q1011 NOSIG

Laikas: 00:33 (16:33 UTC)

Prognozė

Ataskaita buvo paskelbta 7 valandos ir 26 minutes, ne 09:07 UTC
Prognozė galioja nuo 05 metu 12 UTC su 06 metu 12 UTC
Vėjas 6 kt iš Šiaurės
Matomumas: 8000 m
Laikinai
nuo 06 metu 06 UTC su 06 metu 12 UTC
Mažai debesys ne aukštis 3300 ft, Liūtiniai kamuoliniai debesys.
Su prošvaistėmis ne aukštis 4000 ft
lietus

TAF: ZLLL 050907Z 0512/0612 35003MPS 8000 NSC TX26/0608Z TN11/0522Z TEMPO 0606/0612 -SHRA FEW033CB BKN040

Orai ataskaitas ir orų prognozės (METAR, TAF).

turimą stotys yra geltonos ir raudonos taškus žemėlapyje.

Perkelti pele per norėdami pamatyti stoties vardą.

Tada spustelėkite, norėdami matyti oro stebėjimo ir prognozės.

Norėdami pakeisti žemėlapį: spustelėkite ant žalios mygtukų su juodo kryžiaus žemyn,; žalią mygtuką su brūkšneliu, jei norite nutolinti; arba žalių rodyklių gretimoms žemėlapius.


METAR-TAF: